CheckWX is a tool to help pilots better visualize weather data.  It is not intended as a substitute for an official pre-flight weather briefing.

00:55:23 UTC

KLSE TAF
La Crosse Regional Airport
La Crosse, Wisconsin, USA
KLSE 202333Z 2100/2124 17006KT P6SM SKC FM211800 17011G18KT P6SM FEW250

Apr-21@
00:00 UTC

Apr-21 @ 00:00 UTC

Apr-21@
18:00 UTC

Apr-21 @ 18:00 UTC

KLSE 202333Z 2100/2124 17006KT P6SM SKC
Wind
  • 170° at 6 KTS
Cloud Levels
  • Clear skies

Apr-21@
18:00 UTC

Apr-21 @ 18:00 UTC

Apr-22@
00:00 UTC

Apr-22 @ 00:00 UTC

FM211800 17011G18KT P6SM FEW250

From

From Standard forecast or significant change

Wind
  • 170° at 11 KTS
  • {Gusting to 18 KTS
Cloud Levels
  • Few at 25,000' AGL